Cincinnati, OH (45226)

5:46 AM EDT on October 20, 2014 (GMT -0400)
Mount Lookout | Change Station
CLOSE
Current Station
Personal Weather Station
Location: Cincinnati, OH
Elevation: 650 ft
Nearby Weather Stations

Elev 650 ft 39.12 °N, 84.42 °W | Updated 7 minutes ago

Clear
Clear
45.2 °F
Feels Like 45 °F
N
0.0
Wind Variable Wind from South
Gusts 0.0 mph

Today
High -- | Low -- °F
--% Chance of Precip.
Yesterday
High -- | Low -- °F
Precip. -- in
7:52 AM 6:51 PM
Waning Crescent, 12% visible
Pressure 30.04 in
Visibility 6.0 miles
Clouds Clear
Windchill 45 °F
Dew Point 44 °F
Humidity 94%
Rainfall 0.00 in
Snow Depth Not available.
UV 0 out of 12
Pollen 1.00 out of 12
Ozone Good
PM2.5 Moderate
Flu Activity Sporadic
METAR KLUK 200853Z AUTO 00000KT 6SM BR CLR 06/06 A3004 RMK AO2 SLP172 T00610056 58009

More Conditions Fewer Conditions

Pressure 30.04 in
Visibility 6.0 miles
Clouds Clear
Windchill 45 °F
Dew Point 44 °F
Humidity 94%
Rainfall 0.00 in
Snow Depth Not available.
UV 0 out of 12
Pollen 1.00 out of 12
Ozone Good
PM2.5 Moderate
Flu Activity Sporadic
METAR KLUK 200853Z AUTO 00000KT 6SM BR CLR 06/06 A3004 RMK AO2 SLP172 T00610056 58009

More Conditions Fewer Conditions

10-Day Weather Forecast

Almanac

Astronomy

Oct. 20, 2014 Rise Set
Actual Time 7:52 AM EDT 6:51 PM EDT
Civil Twilight 7:25 AM EDT 7:19 PM EDT
Nautical Twilight 6:54 AM EDT 7:50 PM EDT
Astronomical Twilight 6:23 AM EDT 8:21 PM EDT
Moon 4:41 AM EDT 5:12 PM EDT
Length of Visible Light 11h 53m
Length of Day
10h 59m
Waning Crescent, 12% of the Moon is Illuminated
Today
Waning Crescent
Oct 23
New
Oct 30
First Quarter
Nov 6
Full
Nov 14
Last Quarter

Today's Extremes

State Highs State Lows

Community

WunderPhotos

Upload Photos

1,763,325 photos uploaded!

Nearby

Air Quality

  Air Quality AQ Index Pollutant
Yesterday Good
PM10
Yesterday Good
OZONE
Current Moderate
PM2.5
Current Good
OZONE
Monday Good
PM2.5
Monday Good
OZONE

Snow Depth

Station Depth Elevation
No new snow has been reported.

Earthquake Activity

City Distance Mag. Time & Date
No recent earthquake activity has been reported nearby.
Minimum magnitude displayed is 2.5.

Coastal Water Temperatures

Place Temperature
No Stations Reporting

Nearby Weather Stations